createdAt,value
2022-08-22T00:00:45.577Z,3.70
2022-08-22T00:02:57.282Z,3.40
2022-08-22T00:03:06.939Z,3.95
2022-08-22T00:03:23.662Z,3.50
2022-08-22T00:06:03.217Z,3.50
2022-08-22T00:08:49.600Z,3.65
2022-08-22T00:11:44.631Z,3.55
2022-08-22T00:14:38.632Z,3.45
2022-08-22T00:17:36.315Z,4.03
2022-08-22T00:20:28.020Z,3.38
2022-08-22T00:23:08.576Z,4.07
2022-08-22T00:25:47.673Z,3.35
2022-08-22T00:28:17.354Z,3.58
2022-08-22T00:31:28.562Z,3.58
2022-08-22T00:34:03.009Z,3.38
2022-08-22T00:36:47.877Z,3.58
2022-08-22T00:39:28.827Z,3.80
2022-08-22T00:42:29.562Z,3.42
2022-08-22T00:45:31.552Z,3.20
2022-08-22T00:48:27.185Z,3.35
2022-08-22T00:51:01.515Z,3.83
2022-08-22T00:53:51.052Z,3.33
2022-08-22T00:56:37.648Z,3.70
2022-08-22T00:59:51.097Z,3.42
2022-08-22T01:02:32.006Z,3.60
2022-08-22T01:05:11.867Z,3.92
2022-08-22T01:08:12.221Z,4.22
2022-08-22T01:11:13.435Z,3.85
2022-08-22T01:13:44.428Z,3.47
2022-08-22T01:16:30.908Z,3.30
2022-08-22T01:19:32.704Z,3.88
2022-08-22T01:22:18.339Z,3.38
2022-08-22T01:25:40.782Z,3.78
2022-08-22T01:28:54.710Z,3.88
2022-08-22T01:31:42.401Z,3.25
2022-08-22T01:34:56.800Z,3.42
2022-08-22T01:38:01.333Z,3.60
2022-08-22T01:40:47.610Z,3.83
2022-08-22T01:43:59.636Z,4.00
2022-08-22T01:46:31.886Z,3.30
2022-08-22T01:49:18.329Z,4.03
2022-08-22T01:51:53.331Z,4.30
2022-08-22T01:54:36.676Z,4.45
2022-08-22T01:57:08.803Z,4.10
2022-08-22T01:59:42.991Z,3.92
2022-08-22T02:02:32.557Z,4.15
2022-08-22T02:05:23.720Z,3.90
2022-08-22T02:08:19.319Z,3.78
2022-08-22T02:11:04.379Z,3.67
2022-08-22T02:16:18.702Z,3.58
2022-08-22T02:18:57.319Z,3.72
2022-08-22T02:21:44.888Z,3.90
2022-08-22T02:24:25.801Z,3.63
2022-08-22T02:27:11.875Z,4.00
2022-08-22T02:29:48.341Z,4.00
2022-08-22T02:32:25.259Z,4.35
2022-08-22T02:35:03.776Z,3.97
2022-08-22T02:37:37.748Z,4.10
2022-08-22T02:40:09.252Z,4.35
2022-08-22T02:42:52.343Z,4.85
2022-08-22T02:45:38.857Z,4.43
2022-08-22T02:48:28.587Z,4.95
2022-08-22T02:50:59.364Z,3.83
2022-08-22T02:54:04.492Z,4.20
2022-08-22T02:56:46.375Z,4.13
2022-08-22T02:59:20.300Z,4.63
2022-08-22T03:01:49.759Z,4.90
2022-08-22T03:04:21.478Z,4.22
2022-08-22T03:07:22.148Z,4.60
2022-08-22T03:10:22.969Z,5.40
2022-08-22T03:13:08.240Z,4.78
2022-08-22T03:15:48.512Z,4.65
2022-08-22T03:18:30.255Z,4.80
2022-08-22T03:21:11.712Z,4.50
2022-08-22T03:23:56.934Z,4.70
2022-08-22T03:26:51.820Z,4.57
2022-08-22T03:29:46.301Z,5.28
2022-08-22T03:32:21.459Z,4.83
2022-08-22T03:34:57.125Z,5.00
2022-08-22T03:37:44.113Z,4.97
2022-08-22T03:40:45.943Z,4.55
2022-08-22T03:43:51.683Z,5.05
2022-08-22T03:49:11.630Z,5.30
2022-08-22T03:51:45.066Z,6.03
2022-08-22T03:54:44.432Z,5.47
2022-08-22T03:57:40.077Z,5.60
2022-08-22T04:00:39.183Z,5.68
2022-08-22T04:03:46.491Z,6.07
2022-08-22T04:06:44.853Z,6.38
2022-08-22T04:09:42.857Z,5.65
2022-08-22T04:12:20.028Z,5.67
2022-08-22T04:14:56.287Z,5.72
2022-08-22T04:17:39.105Z,6.32
2022-08-22T04:20:25.607Z,6.05
2022-08-22T04:23:12.697Z,5.90
2022-08-22T04:25:57.870Z,5.90
2022-08-22T04:28:43.418Z,6.68
2022-08-22T04:31:21.508Z,6.85
2022-08-22T04:34:04.849Z,6.30
2022-08-22T04:36:46.018Z,6.03
2022-08-22T04:39:25.957Z,5.50
2022-08-22T04:42:32.382Z,6.18
2022-08-22T04:45:26.562Z,6.40
2022-08-22T04:48:06.976Z,5.93
2022-08-22T04:51:05.728Z,5.72
2022-08-22T04:54:02.643Z,5.93
2022-08-22T04:56:50.133Z,6.47
2022-08-22T04:59:21.984Z,5.90
2022-08-22T05:02:07.155Z,6.00
2022-08-22T05:04:40.423Z,5.97
2022-08-22T05:07:18.772Z,5.60
2022-08-22T05:09:54.251Z,6.13
2022-08-22T05:12:31.768Z,6.13
2022-08-22T05:15:07.230Z,5.82
2022-08-22T05:17:40.489Z,6.40
2022-08-22T05:20:14.076Z,5.88
2022-08-22T05:22:48.387Z,6.40
2022-08-22T05:25:21.532Z,5.07
2022-08-22T05:27:56.426Z,4.80
2022-08-22T05:30:31.245Z,3.80
2022-08-22T05:33:04.847Z,4.07
2022-08-22T05:35:44.970Z,3.90
2022-08-22T05:38:20.780Z,3.40
2022-08-22T05:40:57.592Z,4.20
2022-08-22T05:43:27.169Z,3.67
2022-08-22T05:45:58.391Z,3.60
2022-08-22T05:48:37.826Z,4.00
2022-08-22T05:51:18.858Z,3.63
2022-08-22T05:53:53.480Z,4.00
2022-08-22T05:56:34.438Z,3.70
2022-08-22T05:59:26.901Z,3.58
2022-08-22T06:02:00.191Z,3.45
2022-08-22T06:04:31.692Z,4.30
2022-08-22T06:07:09.659Z,5.47
2022-08-22T06:10:22.987Z,5.47
2022-08-22T06:13:01.698Z,6.10
2022-08-22T06:16:11.664Z,5.75
2022-08-22T06:18:42.343Z,5.35
2022-08-22T06:21:22.266Z,6.35
2022-08-22T06:23:56.725Z,6.20
2022-08-22T06:26:30.904Z,5.55
2022-08-22T06:29:01.513Z,6.97
2022-08-22T06:31:32.215Z,6.60
2022-08-22T06:34:12.053Z,6.57
2022-08-22T06:36:44.312Z,6.47
2022-08-22T06:39:24.179Z,6.75
2022-08-22T06:42:05.950Z,6.80
2022-08-22T06:44:43.117Z,6.38
2022-08-22T06:47:17.404Z,6.50
2022-08-22T06:49:46.021Z,6.50
2022-08-22T06:52:21.216Z,6.15
2022-08-22T06:55:00.372Z,6.18
2022-08-22T06:57:48.539Z,6.32
2022-08-22T07:00:18.190Z,6.10
2022-08-22T07:03:12.075Z,5.97
2022-08-22T07:05:42.913Z,6.57
2022-08-22T07:08:19.418Z,6.35
2022-08-22T07:11:16.443Z,5.68
2022-08-22T07:13:54.872Z,5.50
2022-08-22T07:16:39.335Z,4.90
2022-08-22T07:19:09.365Z,5.10
2022-08-22T07:21:47.201Z,5.13
2022-08-22T07:24:20.678Z,5.35
2022-08-22T07:27:00.310Z,4.63
2022-08-22T07:29:54.076Z,4.55
2022-08-22T07:32:33.940Z,4.78
2022-08-22T07:35:28.860Z,4.82
2022-08-22T07:38:05.878Z,5.15
2022-08-22T07:40:55.012Z,4.80
2022-08-22T07:43:25.599Z,4.72
2022-08-22T07:46:16.467Z,4.63
2022-08-22T07:49:14.395Z,5.07
2022-08-22T07:52:08.325Z,4.22
2022-08-22T07:54:57.935Z,4.00
2022-08-22T07:58:01.572Z,4.50
2022-08-22T08:00:41.354Z,4.45
2022-08-22T08:03:10.170Z,4.20
2022-08-22T08:05:42.103Z,4.85
2022-08-22T08:08:28.297Z,4.32
2022-08-22T08:10:59.213Z,4.25
2022-08-22T08:13:35.329Z,4.32
2022-08-22T08:16:07.568Z,3.75
2022-08-22T08:18:37.272Z,4.28
2022-08-22T08:21:09.101Z,4.10
2022-08-22T08:23:46.460Z,4.40
2022-08-22T08:26:21.121Z,4.07
2022-08-22T08:28:52.089Z,3.80
2022-08-22T08:31:31.879Z,3.63
2022-08-22T08:34:07.715Z,3.75
2022-08-22T08:36:48.363Z,3.42
2022-08-22T08:39:36.827Z,3.97
2022-08-22T08:42:05.122Z,3.00
2022-08-22T08:44:37.457Z,2.80
2022-08-22T08:47:08.701Z,2.90
2022-08-22T08:49:59.911Z,2.83
2022-08-22T08:52:54.811Z,2.92
2022-08-22T08:55:54.265Z,2.55
2022-08-22T08:58:35.421Z,2.50
2022-08-22T09:01:29.753Z,2.90
2022-08-22T09:04:21.137Z,3.10
2022-08-22T09:07:19.725Z,3.03
2022-08-22T09:10:08.029Z,3.00
2022-08-22T09:12:56.443Z,2.80
2022-08-22T09:15:41.664Z,3.33
2022-08-22T09:18:24.593Z,2.80
2022-08-22T09:21:27.950Z,2.70
2022-08-22T09:24:46.667Z,2.40
2022-08-22T09:27:24.492Z,2.70
2022-08-22T09:30:02.399Z,2.78
2022-08-22T09:32:52.215Z,2.70
2022-08-22T09:35:46.453Z,2.67
2022-08-22T09:38:32.043Z,3.00
2022-08-22T09:41:47.179Z,3.00
2022-08-22T09:44:39.455Z,2.53
2022-08-22T09:47:32.859Z,2.90
2022-08-22T09:50:17.154Z,2.30
2022-08-22T09:53:07.809Z,2.75
2022-08-22T09:55:51.866Z,3.13
2022-08-22T10:01:00.600Z,2.72
2022-08-22T10:04:00.630Z,3.00
2022-08-22T10:06:39.232Z,2.72
2022-08-22T10:09:24.206Z,2.65
2022-08-22T10:12:12.791Z,2.60
2022-08-22T10:15:15.162Z,3.00
2022-08-22T10:17:57.914Z,2.90
2022-08-22T10:20:32.289Z,2.42
2022-08-22T10:23:18.413Z,2.53
2022-08-22T10:25:55.170Z,2.22
2022-08-22T10:28:39.416Z,2.70
2022-08-22T10:31:13.453Z,2.53
2022-08-22T10:34:03.958Z,2.60
2022-08-22T10:37:10.335Z,2.65
2022-08-22T10:39:57.856Z,2.47
2022-08-22T10:42:40.192Z,2.78
2022-08-22T10:45:36.048Z,2.60
2022-08-22T10:48:11.515Z,2.97
2022-08-22T10:50:53.070Z,2.85
2022-08-22T10:53:37.135Z,3.13
2022-08-22T10:56:11.659Z,2.93
2022-08-22T10:58:51.326Z,2.70
2022-08-22T11:01:37.439Z,3.00
2022-08-22T11:04:28.354Z,3.15
2022-08-22T11:07:14.395Z,3.25
2022-08-22T11:09:44.441Z,2.83
2022-08-22T11:12:20.853Z,2.67
2022-08-22T11:15:28.312Z,3.25
2022-08-22T11:18:33.765Z,3.00
2022-08-22T11:21:11.050Z,2.30
2022-08-22T11:24:34.630Z,2.83
2022-08-22T11:30:36.353Z,2.95
2022-08-22T11:33:46.353Z,3.05
2022-08-22T11:36:30.834Z,3.17
2022-08-22T11:39:32.615Z,2.67
2022-08-22T11:42:26.038Z,2.60
2022-08-22T11:45:01.004Z,2.45
2022-08-22T11:47:39.987Z,3.15
2022-08-22T11:50:29.490Z,2.60
2022-08-22T11:53:15.588Z,2.88
2022-08-22T11:56:14.076Z,2.92
2022-08-22T11:59:01.670Z,3.47
2022-08-22T12:01:40.972Z,2.80
2022-08-22T12:04:17.443Z,2.45
2022-08-22T12:06:51.619Z,2.80
2022-08-22T12:09:57.940Z,2.60
2022-08-22T12:12:45.743Z,2.53
2022-08-22T12:15:26.505Z,2.80
2022-08-22T12:18:09.218Z,2.35
2022-08-22T12:21:05.008Z,2.65
2022-08-22T12:24:19.406Z,2.42
2022-08-22T12:27:14.631Z,2.42
2022-08-22T12:30:35.613Z,2.20
2022-08-22T12:33:10.034Z,2.50
2022-08-22T12:36:06.484Z,2.60
2022-08-22T12:39:02.132Z,2.50
2022-08-22T12:41:48.625Z,2.20
2022-08-22T12:44:31.417Z,2.80
2022-08-22T12:47:50.573Z,2.33
2022-08-22T12:50:39.640Z,2.45
2022-08-22T12:53:20.098Z,2.15
2022-08-22T12:56:00.992Z,2.47
2022-08-22T12:59:10.544Z,2.30
2022-08-22T13:01:49.176Z,2.78
2022-08-22T13:04:33.268Z,2.20
2022-08-22T13:07:16.186Z,2.20
2022-08-22T13:09:55.121Z,2.22
2022-08-22T13:12:59.465Z,2.50
2022-08-22T13:15:36.091Z,2.10
2022-08-22T13:18:29.366Z,2.25
2022-08-22T13:21:04.415Z,2.30
2022-08-22T13:23:48.524Z,2.20
2022-08-22T13:26:33.163Z,2.67
2022-08-22T13:29:39.389Z,2.50
2022-08-22T13:32:20.695Z,2.40
2022-08-22T13:34:58.757Z,2.95
2022-08-22T13:37:41.184Z,2.50
2022-08-22T13:40:29.611Z,2.53
2022-08-22T13:43:11.238Z,2.33
2022-08-22T13:45:41.679Z,3.03
2022-08-22T13:48:13.026Z,2.70
2022-08-22T13:51:00.053Z,2.90
2022-08-22T13:53:49.361Z,2.40
2022-08-22T13:57:00.736Z,2.47
2022-08-22T13:59:51.827Z,2.38
2022-08-22T14:02:45.756Z,2.70
2022-08-22T14:05:23.966Z,3.00
2022-08-22T14:08:22.830Z,2.70
2022-08-22T14:11:06.763Z,2.90
2022-08-22T14:13:56.612Z,2.30
2022-08-22T14:16:34.323Z,2.50
2022-08-22T14:19:08.223Z,2.53
2022-08-22T14:21:40.920Z,2.42
2022-08-22T14:24:21.176Z,2.50
2022-08-22T14:27:07.941Z,2.28
2022-08-22T14:30:12.664Z,2.58
2022-08-22T14:32:49.687Z,2.30
2022-08-22T14:35:35.303Z,2.55
2022-08-22T14:38:39.403Z,2.50
2022-08-22T14:41:56.035Z,2.35
2022-08-22T14:44:39.308Z,2.60
2022-08-22T14:47:54.233Z,2.30
2022-08-22T14:50:59.039Z,2.20
2022-08-22T14:53:33.477Z,2.35
2022-08-22T14:56:11.309Z,2.60
2022-08-22T14:58:57.439Z,2.03
2022-08-22T15:01:29.936Z,2.35
2022-08-22T15:04:11.266Z,2.33
2022-08-22T15:06:47.846Z,2.35
2022-08-22T15:09:56.578Z,2.45
2022-08-22T15:12:40.448Z,2.42
2022-08-22T15:15:26.440Z,2.33
2022-08-22T15:17:54.623Z,2.38
2022-08-22T15:20:36.370Z,1.75
2022-08-22T15:23:20.503Z,2.42
2022-08-22T15:26:13.141Z,2.30
2022-08-22T15:28:53.245Z,2.10
2022-08-22T15:31:22.848Z,2.60
2022-08-22T15:33:52.005Z,1.90
2022-08-22T15:36:25.615Z,2.45
2022-08-22T15:39:15.826Z,2.60
2022-08-22T15:41:48.885Z,2.45
2022-08-22T15:44:33.075Z,2.50
2022-08-22T15:47:27.657Z,2.25
2022-08-22T15:50:05.501Z,2.47
2022-08-22T15:52:59.127Z,2.28
2022-08-22T15:55:34.446Z,2.40
2022-08-22T15:58:21.982Z,2.25
2022-08-22T16:01:19.263Z,2.40
2022-08-22T16:04:02.221Z,2.70
2022-08-22T16:06:46.844Z,2.20
2022-08-22T16:09:38.736Z,3.00
2022-08-22T16:12:24.562Z,2.45
2022-08-22T16:14:54.056Z,2.70
2022-08-22T16:17:30.706Z,2.20
2022-08-22T16:20:19.473Z,2.95
2022-08-22T16:23:10.152Z,2.53
2022-08-22T16:25:55.414Z,2.45
2022-08-22T16:28:57.862Z,2.42
2022-08-22T16:31:49.255Z,2.53
2022-08-22T16:34:17.032Z,2.53
2022-08-22T16:36:50.211Z,2.63
2022-08-22T16:39:23.901Z,2.58
2022-08-22T16:42:16.358Z,2.40
2022-08-22T16:44:48.536Z,2.40
2022-08-22T16:47:30.210Z,2.53
2022-08-22T16:50:04.687Z,2.67
2022-08-22T16:52:33.349Z,2.35
2022-08-22T16:55:30.353Z,2.45
2022-08-22T16:58:08.021Z,2.80
2022-08-22T17:01:10.974Z,2.50
2022-08-22T17:04:16.989Z,2.35
2022-08-22T17:07:08.025Z,2.80
2022-08-22T17:10:52.924Z,2.40
2022-08-22T17:13:35.655Z,2.70
2022-08-22T17:16:31.576Z,2.85
2022-08-22T17:19:28.737Z,2.60
2022-08-22T17:22:18.901Z,2.42
2022-08-22T17:24:58.227Z,2.30
2022-08-22T17:27:35.108Z,2.67
2022-08-22T17:30:27.063Z,2.25
2022-08-22T17:33:17.003Z,2.05
2022-08-22T17:36:02.980Z,2.00
2022-08-22T17:38:43.599Z,2.47
2022-08-22T17:41:29.179Z,2.05
2022-08-22T17:44:28.551Z,2.42
2022-08-22T17:47:11.534Z,2.50
2022-08-22T17:50:05.575Z,2.35
2022-08-22T17:52:51.055Z,2.73
2022-08-22T17:55:25.545Z,2.47
2022-08-22T17:58:13.100Z,2.80
2022-08-22T18:01:35.710Z,2.60
2022-08-22T18:04:10.648Z,3.20
2022-08-22T18:06:56.230Z,2.20
2022-08-22T18:09:47.664Z,2.22
2022-08-22T18:12:44.333Z,2.50
2022-08-22T18:15:28.906Z,2.92
2022-08-22T18:21:01.029Z,2.45
2022-08-22T18:24:00.683Z,2.40
2022-08-22T18:26:28.659Z,2.35
2022-08-22T18:29:06.798Z,2.85
2022-08-22T18:31:46.385Z,2.40
2022-08-22T18:34:32.397Z,2.78
2022-08-22T18:37:35.811Z,2.40
2022-08-22T18:40:14.000Z,2.90
2022-08-22T18:42:51.809Z,2.90
2022-08-22T18:45:46.079Z,2.92
2022-08-22T18:48:34.528Z,2.95
2022-08-22T18:51:24.413Z,3.33
2022-08-22T18:54:04.894Z,2.80
2022-08-22T18:56:50.352Z,3.10
2022-08-22T18:59:55.118Z,2.70
2022-08-22T19:02:41.941Z,2.42
2022-08-22T19:05:13.820Z,2.70
2022-08-22T19:08:21.820Z,3.13
2022-08-22T19:11:38.264Z,2.72
2022-08-22T19:14:17.055Z,3.08
2022-08-22T19:17:16.805Z,3.40
2022-08-22T19:20:06.996Z,4.18
2022-08-22T19:22:36.844Z,3.55
2022-08-22T19:25:15.339Z,3.47
2022-08-22T19:27:54.576Z,3.88
2022-08-22T19:30:41.021Z,3.42
2022-08-22T19:33:38.708Z,3.45
2022-08-22T19:36:12.296Z,3.08
2022-08-22T19:39:08.871Z,3.63
2022-08-22T19:41:41.445Z,3.60
2022-08-22T19:44:12.705Z,3.28
2022-08-22T19:46:43.662Z,4.20
2022-08-22T19:49:29.466Z,3.92
2022-08-22T19:52:24.715Z,3.60
2022-08-22T19:55:18.020Z,3.72
2022-08-22T19:57:52.162Z,4.10
2022-08-22T20:00:23.411Z,4.50
2022-08-22T20:02:58.504Z,4.20
2022-08-22T20:05:41.732Z,3.72
2022-08-22T20:08:42.759Z,3.60
2022-08-22T20:11:38.906Z,3.70
2022-08-22T20:14:33.585Z,4.07
2022-08-22T20:17:32.949Z,3.88
2022-08-22T20:20:24.036Z,4.15
2022-08-22T20:23:12.245Z,4.70
2022-08-22T20:25:52.858Z,4.30
2022-08-22T20:28:44.451Z,4.40
2022-08-22T20:31:22.118Z,4.50
2022-08-22T20:33:57.559Z,4.63
2022-08-22T20:36:28.585Z,4.80
2022-08-22T20:39:10.858Z,4.85
2022-08-22T20:41:46.598Z,4.68
2022-08-22T20:44:31.668Z,4.40
2022-08-22T20:47:10.275Z,4.57
2022-08-22T20:49:45.757Z,5.18
2022-08-22T20:52:35.096Z,4.60
2022-08-22T20:55:02.984Z,4.30
2022-08-22T20:57:32.099Z,5.43
2022-08-22T21:00:11.637Z,4.93
2022-08-22T21:02:51.789Z,4.90
2022-08-22T21:05:23.998Z,4.43
2022-08-22T21:08:20.883Z,5.18
2022-08-22T21:11:32.924Z,5.05
2022-08-22T21:14:16.951Z,4.78
2022-08-22T21:16:44.956Z,5.03
2022-08-22T21:19:25.053Z,5.18
2022-08-22T21:21:55.649Z,4.60
2022-08-22T21:24:27.321Z,4.80
2022-08-22T21:27:03.392Z,4.60
2022-08-22T21:29:42.806Z,4.88
2022-08-22T21:32:13.690Z,4.90
2022-08-22T21:34:45.386Z,5.03
2022-08-22T21:37:16.847Z,5.15
2022-08-22T21:39:48.903Z,5.20
2022-08-22T21:42:36.543Z,6.10
2022-08-22T21:45:27.168Z,5.28
2022-08-22T21:47:55.554Z,5.45
2022-08-22T21:50:23.666Z,5.57
2022-08-22T21:52:54.448Z,5.55
2022-08-22T21:55:31.769Z,5.72
2022-08-22T21:58:35.750Z,5.28
2022-08-22T22:01:31.958Z,5.40
2022-08-22T22:04:00.925Z,6.10
2022-08-22T22:06:28.889Z,5.38
2022-08-22T22:08:56.794Z,6.05
2022-08-22T22:11:24.764Z,6.18
2022-08-22T22:13:53.137Z,6.45
2022-08-22T22:16:26.031Z,6.07
2022-08-22T22:18:54.280Z,5.72
2022-08-22T22:21:22.371Z,6.13
2022-08-22T22:23:50.680Z,5.82
2022-08-22T22:26:19.494Z,5.47
2022-08-22T22:28:48.633Z,5.70
2022-08-22T22:31:18.484Z,5.80
2022-08-22T22:33:46.793Z,6.15
2022-08-22T22:36:25.136Z,5.72
2022-08-22T22:38:53.826Z,6.10
2022-08-22T22:41:25.932Z,5.80
2022-08-22T22:43:55.179Z,5.55
2022-08-22T22:46:23.788Z,5.50
2022-08-22T22:48:51.818Z,6.00
2022-08-22T22:51:19.852Z,5.47
2022-08-22T22:53:47.761Z,5.30
2022-08-22T22:56:21.530Z,5.75
2022-08-22T22:59:00.745Z,5.35
2022-08-22T23:01:31.686Z,5.30
2022-08-22T23:04:05.504Z,5.38
2022-08-22T23:06:35.449Z,5.40
2022-08-22T23:09:03.688Z,5.68
2022-08-22T23:11:32.315Z,5.22
2022-08-22T23:14:02.748Z,5.30
2022-08-22T23:16:35.197Z,5.85
2022-08-22T23:21:37.684Z,5.65
2022-08-22T23:24:06.924Z,5.32
2022-08-22T23:26:36.047Z,5.07
2022-08-22T23:29:06.048Z,5.25
2022-08-22T23:31:41.595Z,5.13
2022-08-22T23:34:12.379Z,5.88
2022-08-22T23:36:42.459Z,5.70
2022-08-22T23:39:12.411Z,5.22
2022-08-22T23:41:41.242Z,5.78
2022-08-22T23:44:13.655Z,5.40
2022-08-22T23:46:43.031Z,6.03
2022-08-22T23:49:11.886Z,5.93
2022-08-22T23:51:40.064Z,6.32
2022-08-22T23:54:09.078Z,5.65
2022-08-22T23:56:40.295Z,5.80
2022-08-22T23:59:13.060Z,5.25
